createdAt,value
2022-08-01T00:01:00.564Z,55.97
2022-08-01T00:04:03.395Z,56.85
2022-08-01T00:07:06.208Z,57.95
2022-08-01T00:10:12.933Z,58.90
2022-08-01T00:13:15.648Z,60.12
2022-08-01T00:16:18.415Z,62.11
2022-08-01T00:19:21.191Z,62.30
2022-08-01T00:22:23.979Z,63.44
2022-08-01T00:25:34.168Z,64.22
2022-08-01T00:28:37.432Z,64.88
2022-08-01T00:31:40.281Z,64.90
2022-08-01T00:34:42.924Z,66.40
2022-08-01T00:37:46.039Z,66.22
2022-08-01T00:40:50.676Z,66.31
2022-08-01T00:43:53.424Z,66.82
2022-08-01T00:46:56.206Z,67.65
2022-08-01T00:49:59.130Z,67.55
2022-08-01T00:53:03.174Z,67.09
2022-08-01T00:56:08.014Z,67.20
2022-08-01T00:59:11.798Z,67.20
2022-08-01T01:02:16.111Z,67.31
2022-08-01T01:05:19.116Z,67.10
2022-08-01T01:08:28.533Z,66.81
2022-08-01T01:11:42.649Z,67.41
2022-08-01T01:14:53.150Z,67.92
2022-08-01T01:18:01.682Z,68.24
2022-08-01T01:21:14.160Z,67.36
2022-08-01T01:24:28.838Z,67.45
2022-08-01T01:27:50.710Z,67.40
2022-08-01T01:30:59.431Z,67.39
2022-08-01T01:34:05.733Z,67.83
2022-08-01T01:37:13.244Z,68.02
2022-08-01T01:40:17.453Z,68.00
2022-08-01T01:43:22.535Z,68.27
2022-08-01T01:46:34.101Z,67.99
2022-08-01T01:49:37.134Z,68.40
2022-08-01T01:52:42.640Z,67.81
2022-08-01T01:55:50.050Z,68.23
2022-08-01T01:58:55.837Z,67.84
2022-08-01T02:02:05.835Z,67.86
2022-08-01T02:05:13.423Z,67.29
2022-08-01T02:08:18.353Z,68.26
2022-08-01T02:11:22.560Z,67.96
2022-08-01T02:14:26.051Z,68.09
2022-08-01T02:17:31.574Z,67.92
2022-08-01T02:20:38.812Z,68.12
2022-08-01T02:23:42.405Z,68.56
2022-08-01T02:26:51.289Z,69.02
2022-08-01T02:29:59.989Z,68.72
2022-08-01T02:33:07.366Z,69.93
2022-08-01T02:36:29.705Z,70.43
2022-08-01T02:39:38.622Z,70.09
2022-08-01T02:42:45.768Z,69.95
2022-08-01T02:45:53.596Z,70.92
2022-08-01T02:49:01.586Z,69.34
2022-08-01T02:52:09.547Z,69.48
2022-08-01T02:55:13.353Z,68.98
2022-08-01T02:58:18.575Z,70.41
2022-08-01T03:01:23.055Z,70.01
2022-08-01T03:04:30.808Z,70.14
2022-08-01T03:07:40.442Z,70.86
2022-08-01T03:10:46.443Z,70.32
2022-08-01T03:13:50.519Z,70.10
2022-08-01T03:16:54.977Z,70.02
2022-08-01T03:20:00.883Z,69.81
2022-08-01T03:23:07.306Z,69.59
2022-08-01T03:26:11.338Z,70.09
2022-08-01T03:29:17.970Z,70.35
2022-08-01T03:32:21.910Z,70.61
2022-08-01T03:35:31.954Z,70.85
2022-08-01T03:38:39.770Z,70.27
2022-08-01T03:41:45.563Z,71.31
2022-08-01T03:44:54.757Z,70.92
2022-08-01T03:48:01.958Z,71.53
2022-08-01T03:51:07.613Z,71.32
2022-08-01T03:54:12.567Z,70.55
2022-08-01T03:57:34.841Z,71.92
2022-08-01T04:00:40.693Z,72.51
2022-08-01T04:03:43.883Z,71.48
2022-08-01T04:06:51.343Z,71.75
2022-08-01T04:09:54.914Z,70.86
2022-08-01T04:12:57.568Z,71.19
2022-08-01T04:16:00.216Z,71.60
2022-08-01T04:19:03.029Z,72.27
2022-08-01T04:22:08.158Z,72.82
2022-08-01T04:25:14.985Z,72.57
2022-08-01T04:28:20.677Z,72.88
2022-08-01T04:31:27.083Z,73.66
2022-08-01T04:34:32.597Z,73.13
2022-08-01T04:37:39.008Z,73.28
2022-08-01T04:40:43.019Z,72.45
2022-08-01T04:43:45.871Z,73.10
2022-08-01T04:46:49.383Z,73.19
2022-08-01T04:49:52.803Z,73.15
2022-08-01T04:52:56.934Z,73.94
2022-08-01T04:55:59.771Z,74.16
2022-08-01T04:59:20.460Z,73.62
2022-08-01T05:02:23.163Z,73.69
2022-08-01T05:05:27.379Z,74.13
2022-08-01T05:08:31.393Z,73.97
2022-08-01T05:11:34.131Z,73.52
2022-08-01T05:14:37.073Z,73.50
2022-08-01T05:17:39.797Z,74.14
2022-08-01T05:20:42.861Z,73.09
2022-08-01T05:23:46.810Z,72.90
2022-08-01T05:26:50.082Z,73.58
2022-08-01T05:29:52.825Z,72.76
2022-08-01T05:32:55.586Z,73.00
2022-08-01T05:36:00.149Z,72.61
2022-08-01T05:39:04.338Z,72.98
2022-08-01T05:42:07.634Z,72.34
2022-08-01T05:45:11.529Z,71.79
2022-08-01T05:48:14.126Z,72.00
2022-08-01T05:51:17.055Z,72.31
2022-08-01T05:54:21.055Z,72.13
2022-08-01T05:57:23.799Z,72.45
2022-08-01T06:00:26.731Z,71.18
2022-08-01T06:03:32.238Z,72.42
2022-08-01T06:06:34.857Z,71.79
2022-08-01T06:09:38.978Z,71.03
2022-08-01T06:12:41.665Z,71.35
2022-08-01T06:15:44.507Z,70.75
2022-08-01T06:18:47.337Z,72.82
2022-08-01T06:21:50.100Z,71.16
2022-08-01T06:24:54.051Z,70.33
2022-08-01T06:27:56.872Z,69.87
2022-08-01T06:31:00.745Z,69.35
2022-08-01T06:34:03.379Z,68.78
2022-08-01T06:37:06.930Z,69.43
2022-08-01T06:40:17.107Z,69.42
2022-08-01T06:43:20.842Z,69.58
2022-08-01T06:46:23.659Z,70.69
2022-08-01T06:49:33.218Z,70.17
2022-08-01T06:52:36.330Z,69.82
2022-08-01T06:55:40.340Z,69.56
2022-08-01T06:58:43.065Z,70.12
2022-08-01T07:01:45.708Z,71.30
2022-08-01T07:04:48.534Z,71.67
2022-08-01T07:07:51.369Z,71.46
2022-08-01T07:10:55.586Z,71.06
2022-08-01T07:13:58.397Z,70.35
2022-08-01T07:17:01.231Z,70.02
2022-08-01T07:20:04.489Z,68.86
2022-08-01T07:23:07.330Z,67.62
2022-08-01T07:26:12.138Z,67.57
2022-08-01T07:29:14.934Z,67.61
2022-08-01T07:32:17.583Z,67.57
2022-08-01T07:35:20.976Z,67.20
2022-08-01T07:38:23.727Z,67.47
2022-08-01T07:41:52.739Z,67.74
2022-08-01T07:44:50.521Z,67.96
2022-08-01T07:47:53.194Z,67.83
2022-08-01T07:50:56.056Z,67.21
2022-08-01T07:53:58.780Z,67.50
2022-08-01T07:57:03.638Z,66.14
2022-08-01T08:00:09.464Z,64.24
2022-08-01T08:03:12.388Z,63.31
2022-08-01T08:06:15.061Z,62.81
2022-08-01T08:09:18.291Z,62.90
2022-08-01T08:12:28.344Z,62.64
2022-08-01T08:15:32.482Z,61.29
2022-08-01T08:18:36.689Z,60.06
2022-08-01T08:21:40.943Z,60.75
2022-08-01T08:24:46.499Z,61.42
2022-08-01T08:27:51.035Z,61.76
2022-08-01T08:30:54.160Z,62.81
2022-08-01T08:33:56.867Z,62.06
2022-08-01T08:37:00.184Z,62.26
2022-08-01T08:40:03.335Z,61.56
2022-08-01T08:43:07.886Z,59.76
2022-08-01T08:46:13.026Z,58.46
2022-08-01T08:49:19.394Z,57.70
2022-08-01T08:52:23.508Z,57.89
2022-08-01T08:55:28.346Z,58.15
2022-08-01T08:58:38.587Z,57.87
2022-08-01T09:01:41.535Z,59.33
2022-08-01T09:04:44.819Z,60.23
2022-08-01T09:07:47.732Z,59.65
2022-08-01T09:10:50.357Z,59.50
2022-08-01T09:14:10.967Z,58.49
2022-08-01T09:17:13.829Z,59.10
2022-08-01T09:20:25.328Z,59.63
2022-08-01T09:23:34.360Z,59.58
2022-08-01T09:26:38.654Z,59.54
2022-08-01T09:29:45.554Z,60.15
2022-08-01T09:32:57.226Z,59.80
2022-08-01T09:36:00.488Z,59.96
2022-08-01T09:39:15.702Z,60.39
2022-08-01T09:42:28.989Z,60.69
2022-08-01T09:45:41.761Z,60.71
2022-08-01T09:49:02.166Z,60.41
2022-08-01T09:52:15.798Z,59.88
2022-08-01T09:55:23.523Z,60.59
2022-08-01T09:58:26.156Z,59.61
2022-08-01T10:01:44.155Z,59.98
2022-08-01T10:04:50.979Z,59.63
2022-08-01T10:08:01.028Z,59.00
2022-08-01T10:11:12.156Z,59.19
2022-08-01T10:14:18.107Z,59.64
2022-08-01T10:17:51.334Z,59.10
2022-08-01T10:20:53.306Z,58.56
2022-08-01T10:24:03.106Z,58.87
2022-08-01T10:27:09.485Z,59.85
2022-08-01T10:30:20.178Z,59.79
2022-08-01T10:33:50.690Z,60.08
2022-08-01T10:36:50.981Z,59.54
2022-08-01T10:40:14.054Z,58.42
2022-08-01T10:43:21.737Z,57.07
2022-08-01T10:46:25.234Z,56.17
2022-08-01T10:49:32.639Z,56.03
2022-08-01T10:52:39.427Z,55.66
2022-08-01T10:55:55.180Z,55.51
2022-08-01T10:59:06.014Z,56.34
2022-08-01T11:02:09.646Z,58.06
2022-08-01T11:05:23.862Z,61.45
2022-08-01T11:08:27.790Z,62.31
2022-08-01T11:11:37.625Z,64.00
2022-08-01T11:15:16.921Z,65.25
2022-08-01T11:18:33.788Z,66.50
2022-08-01T11:22:05.042Z,66.89
2022-08-01T11:25:08.040Z,65.25
2022-08-01T11:28:29.206Z,66.36
2022-08-01T11:31:38.400Z,64.99
2022-08-01T11:34:57.252Z,63.80
2022-08-01T11:38:24.745Z,62.16
2022-08-01T11:41:37.624Z,60.05
2022-08-01T11:44:50.759Z,59.16
2022-08-01T11:47:53.596Z,55.61
2022-08-01T11:51:02.032Z,56.76
2022-08-01T11:54:06.916Z,54.76
2022-08-01T11:57:13.963Z,54.11
2022-08-01T12:00:19.164Z,53.53
2022-08-01T12:03:33.641Z,52.78
2022-08-01T12:06:36.809Z,53.93
2022-08-01T12:09:41.011Z,52.07
2022-08-01T12:12:46.136Z,50.84
2022-08-01T12:15:56.244Z,50.76
2022-08-01T12:18:59.477Z,51.82
2022-08-01T12:22:13.680Z,50.27
2022-08-01T12:25:19.416Z,51.20
2022-08-01T12:28:22.193Z,49.44
2022-08-01T12:31:33.336Z,48.60
2022-08-01T12:34:36.592Z,48.14
2022-08-01T12:37:40.569Z,49.17
2022-08-01T12:40:46.369Z,49.05
2022-08-01T12:43:50.267Z,49.61
2022-08-01T12:46:53.751Z,49.39
2022-08-01T12:49:56.487Z,51.12
2022-08-01T12:53:00.418Z,51.44
2022-08-01T12:56:04.716Z,52.40
2022-08-01T12:59:21.967Z,52.96
2022-08-01T13:02:33.996Z,53.66
2022-08-01T13:05:44.235Z,53.17
2022-08-01T13:08:47.627Z,52.36
2022-08-01T13:12:12.305Z,51.34
2022-08-01T13:15:32.027Z,50.57
2022-08-01T13:18:35.737Z,52.09
2022-08-01T13:21:53.941Z,52.47
2022-08-01T13:25:11.722Z,52.73
2022-08-01T13:28:20.139Z,53.17
2022-08-01T13:31:34.749Z,53.00
2022-08-01T13:34:38.375Z,53.47
2022-08-01T13:37:42.330Z,52.13
2022-08-01T13:40:45.165Z,51.31
2022-08-01T13:43:57.943Z,49.68
2022-08-01T13:47:01.865Z,48.08
2022-08-01T13:50:14.337Z,46.88
2022-08-01T13:53:18.623Z,44.80
2022-08-01T13:56:21.365Z,45.56
2022-08-01T13:59:25.408Z,45.96
2022-08-01T14:02:28.824Z,46.30
2022-08-01T14:05:32.084Z,46.75
2022-08-01T14:08:34.991Z,46.18
2022-08-01T14:11:38.469Z,45.14
2022-08-01T14:14:42.632Z,45.68
2022-08-01T14:17:47.564Z,45.58
2022-08-01T14:20:50.885Z,46.22
2022-08-01T14:23:57.147Z,45.58
2022-08-01T14:27:00.014Z,46.07
2022-08-01T14:30:04.647Z,47.05
2022-08-01T14:33:07.409Z,47.33
2022-08-01T14:36:30.746Z,49.13
2022-08-01T14:39:32.802Z,50.01
2022-08-01T14:42:35.809Z,49.93
2022-08-01T14:45:39.839Z,50.67
2022-08-01T14:48:43.002Z,50.51
2022-08-01T14:51:45.799Z,49.59
2022-08-01T14:54:48.732Z,49.46
2022-08-01T14:57:51.629Z,50.42
2022-08-01T15:00:58.790Z,50.40
2022-08-01T15:04:02.009Z,49.86
2022-08-01T15:07:07.191Z,49.21
2022-08-01T15:10:10.531Z,48.32
2022-08-01T15:13:13.151Z,47.78
2022-08-01T15:16:17.470Z,47.01
2022-08-01T15:19:20.169Z,47.45
2022-08-01T15:22:23.772Z,47.37
2022-08-01T15:25:26.424Z,48.95
2022-08-01T15:28:43.262Z,48.97
2022-08-01T15:31:47.617Z,48.92
2022-08-01T15:34:50.288Z,48.02
2022-08-01T15:37:53.083Z,48.33
2022-08-01T15:44:14.726Z,48.57
2022-08-01T15:47:17.574Z,48.63
2022-08-01T15:50:20.200Z,47.50
2022-08-01T15:53:22.876Z,47.58
2022-08-01T15:56:25.879Z,48.85
2022-08-01T15:59:30.128Z,48.87
2022-08-01T16:02:32.841Z,49.74
2022-08-01T16:05:41.060Z,49.35
2022-08-01T16:08:46.552Z,50.31
2022-08-01T16:11:51.134Z,50.08
2022-08-01T16:14:55.597Z,49.50
2022-08-01T16:17:58.262Z,49.83
2022-08-01T16:21:05.272Z,49.09
2022-08-01T16:24:08.300Z,49.11
2022-08-01T16:27:10.984Z,49.38
2022-08-01T16:30:15.497Z,48.85
2022-08-01T16:33:40.115Z,47.92
2022-08-01T16:36:40.958Z,48.60
2022-08-01T16:39:44.713Z,48.73
2022-08-01T16:42:47.569Z,48.65
2022-08-01T16:45:51.794Z,48.84
2022-08-01T16:48:54.758Z,49.35
2022-08-01T16:51:57.573Z,49.59
2022-08-01T16:55:00.218Z,49.77
2022-08-01T16:58:03.206Z,49.19
2022-08-01T17:01:56.257Z,49.33
2022-08-01T17:04:30.240Z,49.80
2022-08-01T17:07:33.176Z,49.88
2022-08-01T17:10:38.025Z,49.50
2022-08-01T17:13:40.739Z,49.47
2022-08-01T17:16:44.756Z,49.80
2022-08-01T17:19:47.661Z,49.87
2022-08-01T17:22:50.317Z,50.31
2022-08-01T17:25:53.138Z,50.71
2022-08-01T17:28:55.884Z,50.25
2022-08-01T17:31:59.962Z,50.27
2022-08-01T17:35:02.901Z,50.73
2022-08-01T17:38:05.601Z,51.67
2022-08-01T17:41:08.529Z,51.34
2022-08-01T17:44:11.482Z,51.28
2022-08-01T17:47:29.033Z,51.19
2022-08-01T17:50:37.310Z,51.14
2022-08-01T17:53:57.114Z,51.16
2022-08-01T17:57:00.778Z,50.93
2022-08-01T18:00:03.937Z,51.29
2022-08-01T18:03:08.457Z,51.66
2022-08-01T18:06:13.422Z,51.96
2022-08-01T18:09:16.188Z,51.91
2022-08-01T18:12:19.151Z,52.74
2022-08-01T18:15:26.836Z,52.60
2022-08-01T18:18:33.407Z,52.23
2022-08-01T18:21:42.414Z,51.79
2022-08-01T18:24:45.527Z,52.28
2022-08-01T18:28:16.680Z,52.76
2022-08-01T18:31:13.028Z,52.14
2022-08-01T18:34:17.357Z,52.52
2022-08-01T18:37:19.986Z,52.54
2022-08-01T18:40:24.749Z,53.11
2022-08-01T18:43:27.617Z,52.84
2022-08-01T18:46:30.432Z,53.07
2022-08-01T18:49:34.717Z,53.61
2022-08-01T18:52:37.583Z,53.35
2022-08-01T18:55:40.343Z,53.42
2022-08-01T18:58:44.003Z,53.60
2022-08-01T19:01:46.823Z,53.80
2022-08-01T19:04:51.201Z,54.20
2022-08-01T19:08:06.033Z,54.57
2022-08-01T19:11:09.759Z,53.84
2022-08-01T19:14:12.463Z,53.90
2022-08-01T19:17:15.772Z,54.22
2022-08-01T19:20:19.814Z,54.70
2022-08-01T19:23:40.635Z,53.73
2022-08-01T19:26:47.380Z,53.78
2022-08-01T19:29:56.437Z,53.91
2022-08-01T19:33:00.053Z,54.24
2022-08-01T19:36:04.812Z,53.63
2022-08-01T19:39:10.212Z,53.51
2022-08-01T19:42:14.306Z,54.30
2022-08-01T19:45:17.284Z,54.88
2022-08-01T19:48:20.285Z,55.12
2022-08-01T19:51:33.592Z,55.20
2022-08-01T19:54:39.317Z,55.21
2022-08-01T19:57:45.605Z,55.59
2022-08-01T20:00:51.476Z,55.67
2022-08-01T20:03:55.721Z,56.02
2022-08-01T20:07:03.058Z,55.51
2022-08-01T20:10:06.669Z,54.28
2022-08-01T20:13:11.091Z,54.58
2022-08-01T20:16:13.709Z,54.00
2022-08-01T20:19:18.700Z,54.31
2022-08-01T20:22:29.449Z,54.60
2022-08-01T20:25:40.041Z,55.33
2022-08-01T20:28:48.545Z,55.39
2022-08-01T20:31:51.771Z,55.79
2022-08-01T20:34:55.731Z,55.67
2022-08-01T20:38:05.375Z,55.83
2022-08-01T20:41:10.233Z,56.04
2022-08-01T20:44:13.096Z,56.71
2022-08-01T20:47:16.145Z,56.85
2022-08-01T20:50:52.750Z,56.82
2022-08-01T20:53:59.425Z,57.21
2022-08-01T20:57:07.952Z,57.47
2022-08-01T21:00:12.221Z,57.30
2022-08-01T21:03:20.650Z,57.67
2022-08-01T21:06:31.234Z,58.08
2022-08-01T21:09:39.822Z,57.81
2022-08-01T21:12:45.131Z,58.16
2022-08-01T21:15:57.464Z,58.35
2022-08-01T21:19:22.084Z,58.76
2022-08-01T21:22:33.921Z,58.58
2022-08-01T21:25:38.820Z,58.74
2022-08-01T21:28:42.121Z,59.16
2022-08-01T21:32:12.464Z,59.54
2022-08-01T21:35:18.747Z,59.98
2022-08-01T21:38:22.205Z,60.25
2022-08-01T21:42:03.238Z,60.19
2022-08-01T21:44:49.916Z,60.95
2022-08-01T21:47:53.384Z,61.18
2022-08-01T21:50:59.466Z,61.32
2022-08-01T21:54:10.423Z,61.52
2022-08-01T21:57:24.684Z,61.48
2022-08-01T22:00:27.847Z,61.51
2022-08-01T22:03:34.592Z,61.71
2022-08-01T22:06:42.735Z,61.92
2022-08-01T22:09:47.260Z,62.28
2022-08-01T22:12:52.003Z,62.30
2022-08-01T22:15:56.813Z,62.65
2022-08-01T22:19:02.103Z,62.63
2022-08-01T22:22:04.813Z,62.50
2022-08-01T22:25:32.711Z,62.39
2022-08-01T22:28:37.922Z,62.60
2022-08-01T22:31:41.150Z,62.76
2022-08-01T22:34:43.839Z,62.82
2022-08-01T22:37:56.563Z,62.81
2022-08-01T22:41:04.371Z,62.67
2022-08-01T22:44:11.102Z,62.87
2022-08-01T22:47:22.831Z,63.31
2022-08-01T22:50:36.127Z,63.26
2022-08-01T22:53:44.179Z,63.55
2022-08-01T22:56:55.822Z,63.86
2022-08-01T23:00:01.869Z,63.79
2022-08-01T23:03:17.583Z,64.08
2022-08-01T23:06:24.989Z,63.75
2022-08-01T23:09:52.983Z,63.75
2022-08-01T23:12:53.465Z,64.04
2022-08-01T23:15:58.445Z,63.46
2022-08-01T23:19:02.284Z,63.52
2022-08-01T23:22:05.817Z,63.31
2022-08-01T23:25:11.384Z,63.29
2022-08-01T23:28:14.865Z,63.16
2022-08-01T23:31:19.649Z,63.34
2022-08-01T23:34:22.353Z,63.49
2022-08-01T23:37:25.257Z,63.83
2022-08-01T23:40:28.613Z,63.92
2022-08-01T23:43:31.436Z,64.02
2022-08-01T23:46:35.450Z,64.07
2022-08-01T23:49:53.342Z,64.01
2022-08-01T23:52:56.711Z,64.23
2022-08-01T23:56:02.532Z,63.93
2022-08-01T23:59:05.659Z,64.07
